Time;durP1;ratioP1;P1;durP2;ratioP2;P2;SDS_P1;SDS_P2;PMS_P1;PMS_P2;Temp;Humidity;BMP_temperature;BMP_pressure;BME280_temperature;BME280_humidity;BME280_pressure;Samples;Min_cycle;Max_cycle;Signal;HPM_P1;HPM_P2
2022/07/08 00:09:12;;;;;;;2.30;2.10;;;;;;;16.92;56.09;99726.02;445221;1277;142919;-59
2022/07/08 00:19:19;;;;;;;2.80;2.60;;;;;;;16.81;56.51;99729.83;445292;1277;142288;-60
2022/07/08 00:29:25;;;;;;;10.20;2.70;;;;;;;16.70;57.23;99736.48;444709;1277;141960;-61
2022/07/08 00:39:31;;;;;;;5.80;3.00;;;;;;;16.58;57.91;99744.41;445500;1277;200892;-60
2022/07/08 00:49:37;;;;;;;2.80;2.40;;;;;;;16.47;58.50;99742.46;445577;1277;143625;-60
2022/07/08 00:59:45;;;;;;;3.60;2.80;;;;;;;16.38;59.01;99744.45;444774;1277;142975;-61
2022/07/08 01:09:51;;;;;;;3.30;3.00;;;;;;;16.33;59.48;99749.69;445718;1277;142918;-60
2022/07/08 01:19:56;;;;;;;2.60;2.40;;;;;;;16.28;59.93;99754.04;445725;1277;145295;-60
2022/07/08 01:30:03;;;;;;;2.80;2.40;;;;;;;16.24;60.28;99754.64;444489;1277;143120;-60
2022/07/08 01:40:11;;;;;;;5.70;3.30;;;;;;;16.24;60.66;99755.19;445781;1277;141313;-59
2022/07/08 01:50:16;;;;;;;6.60;3.20;;;;;;;16.18;61.11;99755.33;445033;1277;142404;-59
2022/07/08 02:00:22;;;;;;;3.00;2.50;;;;;;;16.16;61.42;99754.48;444963;1279;143263;-60
2022/07/08 02:10:28;;;;;;;3.50;2.40;;;;;;;16.14;61.85;99764.53;445647;1277;143523;-60
2022/07/08 02:20:34;;;;;;;4.70;2.70;;;;;;;16.15;62.04;99773.67;444634;1278;143056;-60
2022/07/08 02:30:40;;;;;;;5.20;3.70;;;;;;;16.15;62.28;99781.61;445413;1277;141922;-60
2022/07/08 02:40:45;;;;;;;4.90;3.40;;;;;;;16.04;62.77;99789.23;445505;1277;142839;-60
2022/07/08 02:50:51;;;;;;;7.50;3.80;;;;;;;15.94;63.17;99791.78;444764;1277;145115;-64
2022/07/08 03:00:57;;;;;;;6.60;3.90;;;;;;;15.94;63.60;99795.68;445471;1277;141866;-59
2022/07/08 03:11:03;;;;;;;4.40;3.20;;;;;;;15.96;63.89;99798.08;445431;1277;143059;-59
2022/07/08 03:21:09;;;;;;;4.20;3.70;;;;;;;16.08;64.04;99803.36;445099;1277;142562;-59
2022/07/08 03:31:15;;;;;;;5.70;5.20;;;;;;;16.26;64.11;99818.48;445491;1277;142982;-61
2022/07/08 03:41:21;;;;;;;9.60;4.60;;;;;;;16.44;64.08;99828.77;444611;1277;146410;-61
2022/07/08 03:51:26;;;;;;;4.70;4.30;;;;;;;16.69;63.90;99833.74;436855;1277;142534;-58
2022/07/08 04:01:32;;;;;;;5.30;4.60;;;;;;;16.96;63.56;99836.87;442808;1278;143037;-60
2022/07/08 04:11:38;;;;;;;5.90;4.30;;;;;;;17.28;63.17;99838.41;444574;1277;142722;-60
2022/07/08 04:21:44;;;;;;;7.10;4.80;;;;;;;17.52;62.86;99846.92;445346;1277;142351;-60
2022/07/08 04:31:50;;;;;;;7.50;4.70;;;;;;;17.93;62.27;99855.85;445416;1277;142668;-59
2022/07/08 04:41:56;;;;;;;7.30;3.80;;;;;;;18.15;61.83;99870.51;444632;1277;142664;-59
2022/07/08 04:52:02;;;;;;;5.70;5.20;;;;;;;18.58;61.41;99881.45;445403;1277;142484;-60
2022/07/08 05:02:07;;;;;;;5.90;4.40;;;;;;;18.90;60.85;99881.15;444572;1277;142837;-59
2022/07/08 05:12:14;;;;;;;5.70;4.60;;;;;;;18.91;60.42;99888.17;445295;1277;143366;-60
2022/07/08 05:22:19;;;;;;;7.30;5.40;;;;;;;18.84;60.53;99901.98;445312;1277;145274;-60
2022/07/08 05:32:26;;;;;;;5.80;5.30;;;;;;;19.25;60.10;99905.40;444488;1277;142866;-60
2022/07/08 05:42:38;;;;;;;8.30;5.20;;;;;;;19.98;59.35;99904.06;445309;1277;142990;-60
2022/07/08 05:52:44;;;;;;;5.70;5.30;;;;;;;21.06;57.68;99910.19;445521;1277;143531;-59
2022/07/08 06:02:50;;;;;;;9.60;5.20;;;;;;;21.95;55.95;99918.05;444790;1277;143511;-60
2022/07/08 06:12:56;;;;;;;5.30;4.80;;;;;;;23.17;53.93;99919.38;445602;1277;141965;-60
2022/07/08 06:23:01;;;;;;;5.40;4.80;;;;;;;23.07;52.78;99924.70;445677;1277;142340;-60
2022/07/08 06:33:07;;;;;;;5.50;5.00;;;;;;;24.30;51.13;99929.66;445403;1277;142125;-60
2022/07/08 06:43:13;;;;;;;5.30;3.60;;;;;;;25.49;49.72;99933.04;445688;1277;142235;-60
2022/07/08 06:53:19;;;;;;;3.50;3.30;;;;;;;28.67;44.86;99925.90;444873;1277;141172;-61
2022/07/08 07:03:24;;;;;;;9.80;3.70;;;;;;;28.68;43.29;99931.09;445007;1278;141765;-60
2022/07/08 07:13:30;;;;;;;4.80;2.70;;;;;;;31.03;39.89;99923.35;445616;1277;142011;-60
2022/07/08 07:23:36;;;;;;;2.80;2.40;;;;;;;28.80;40.29;99922.37;444825;1276;142740;-60
2022/07/08 07:33:42;;;;;;;4.00;3.60;;;;;;;27.05;42.28;99923.98;445602;1278;143398;-60
2022/07/08 07:43:48;;;;;;;2.40;2.20;;;;;;;29.73;39.97;99929.61;445551;1278;141816;-60
2022/07/08 07:53:54;;;;;;;2.40;1.70;;;;;;;28.65;39.10;99937.79;444826;1278;142108;-61
2022/07/08 08:04:00;;;;;;;6.00;3.80;;;;;;;25.29;42.01;99936.14;445603;1277;141817;-60
2022/07/08 08:14:06;;;;;;;3.30;3.10;;;;;;;23.04;46.15;99938.02;444850;1277;144282;-60
2022/07/08 08:24:11;;;;;;;8.10;4.00;;;;;;;23.41;47.26;99929.15;445574;1277;142708;-61
2022/07/08 08:34:17;;;;;;;7.00;3.40;;;;;;;24.48;45.94;99926.70;445551;1277;141771;-60
2022/07/08 08:44:23;;;;;;;5.10;3.40;;;;;;;24.32;46.01;99928.52;444800;1278;142469;-61
2022/07/08 08:54:34;;;;;;;6.30;5.80;;;;;;;22.42;49.46;99950.88;445488;1278;142161;-60
2022/07/08 09:04:40;;;;;;;8.40;7.70;;;;;;;21.45;53.25;99962.86;445631;1277;142267;-61
2022/07/08 09:14:51;;;;;;;8.50;7.80;;;;;;;20.85;55.87;99964.85;444642;1278;141634;-60
2022/07/08 09:24:58;;;;;;;7.90;7.10;;;;;;;20.32;57.86;99976.60;445337;1278;141698;-60
2022/07/08 09:35:13;;;;;;;5.50;5.10;;;;;;;19.47;60.33;99978.99;445319;1279;142639;-60
2022/07/08 09:45:19;;;;;;;5.10;4.70;;;;;;;19.68;61.22;99975.86;445291;1278;143927;-60
2022/07/08 09:55:32;;;;;;;6.10;5.50;;;;;;;20.32;61.25;99964.42;445170;1278;255790;-60
2022/07/08 10:05:38;;;;;;;4.20;3.90;;;;;;;20.83;60.92;99951.33;444618;1278;143537;-60
2022/07/08 10:15:46;;;;;;;4.60;4.30;;;;;;;22.07;59.51;99948.89;445167;1279;145722;-60
2022/07/08 10:25:53;;;;;;;4.50;4.20;;;;;;;21.57;59.12;99948.35;444511;1280;194483;-60
2022/07/08 10:36:08;;;;;;;2.40;2.30;;;;;;;21.79;58.76;99947.91;444127;1280;143313;-59
2022/07/08 10:46:16;;;;;;;2.50;2.30;;;;;;;22.17;57.38;99943.25;444687;1279;143780;-60
2022/07/08 10:56:49;;;;;;;1.70;1.60;;;;;;;22.90;55.36;99926.00;444572;1279;142503;-62
2022/07/08 11:06:56;;;;;;;3.00;2.70;;;;;;;23.81;54.09;99911.82;444329;1280;142680;-59
2022/07/08 11:17:04;;;;;;;3.90;2.60;;;;;;;24.22;52.07;99914.53;445400;1278;142212;-61
2022/07/08 11:27:11;;;;;;;7.40;4.70;;;;;;;21.36;55.72;99949.66;445362;1278;142367;-59
2022/07/08 11:37:18;;;;;;;5.70;5.20;;;;;;;19.56;59.73;99957.49;445336;1277;144712;-60
2022/07/08 11:47:24;;;;;;;5.20;4.70;;;;;;;19.32;61.41;99952.34;444623;1278;142661;-60
2022/07/08 11:57:31;;;;;;;6.10;5.30;;;;;;;19.68;62.03;99946.27;445352;1279;142240;-59
2022/07/08 12:07:39;;;;;;;7.10;5.80;;;;;;;20.61;62.26;99935.95;445323;1278;142918;-61
2022/07/08 12:17:58;;;;;;;8.00;7.20;;;;;;;21.70;61.23;99928.21;444674;1277;142363;-60
2022/07/08 12:28:04;;;;;;;5.60;5.10;;;;;;;21.45;60.72;99929.87;445028;1280;142888;-59
2022/07/08 12:38:12;;;;;;;7.20;4.80;;;;;;;21.95;58.88;99931.95;444747;1277;146120;-60
2022/07/08 12:48:16;;;;;;;;;;;;;;;22.22;56.11;99934.30;445624;1277;142757;-60
2022/07/08 12:58:24;;;;;;;5.70;3.50;;;;;;;22.31;55.95;99933.50;445734;1278;129734;-60
2022/07/08 13:08:31;;;;;;;6.60;4.50;;;;;;;22.88;54.00;99918.29;444771;1277;143006;-60
2022/07/08 13:18:37;;;;;;;3.70;3.30;;;;;;;22.75;53.09;99914.67;445513;1275;142674;-61
2022/07/08 13:28:42;;;;;;;4.40;2.80;;;;;;;22.94;52.30;99907.73;445577;1277;141269;-60
2022/07/08 13:38:49;;;;;;;4.30;3.20;;;;;;;22.93;52.64;99899.14;444781;1276;142653;-60
2022/07/08 13:48:55;;;;;;;9.40;3.60;;;;;;;22.57;53.72;99902.14;445618;1277;144208;-60
2022/07/08 13:59:01;;;;;;;8.30;3.60;;;;;;;23.05;53.39;99897.29;445594;1277;141946;-60
2022/07/08 14:09:07;;;;;;;5.30;3.10;;;;;;;22.83;51.29;99893.48;445367;1277;144526;-60
2022/07/08 14:19:20;;;;;;;4.10;3.30;;;;;;;22.39;51.03;99889.08;444956;1278;142206;-60
2022/07/08 14:29:26;;;;;;;5.00;3.60;;;;;;;22.12;50.81;99886.89;444252;1278;141470;-61
2022/07/08 14:39:32;;;;;;;7.90;3.00;;;;;;;22.08;49.96;99889.81;444890;1279;141595;-60
2022/07/08 14:49:37;;;;;;;3.10;1.80;;;;;;;22.13;49.62;99896.55;444883;1278;141444;-61
2022/07/08 14:59:43;;;;;;;3.90;2.10;;;;;;;21.96;49.20;99895.69;443976;1279;145994;-61
2022/07/08 15:09:49;;;;;;;5.50;1.50;;;;;;;22.43;47.76;99890.67;439232;1278;144105;-60
2022/07/08 15:19:54;;;;;;;5.00;3.20;;;;;;;22.58;46.85;99896.33;430784;1279;142114;-61
2022/07/08 15:30:00;;;;;;;5.00;2.50;;;;;;;22.40;46.27;99904.18;426519;1278;142688;-61
2022/07/08 15:40:09;;;;;;;6.70;2.20;;;;;;;22.01;47.04;99909.08;441039;1279;142379;-61
2022/07/08 15:50:15;;;;;;;1.40;1.10;;;;;;;21.54;47.99;99926.99;440261;1278;143024;-61
2022/07/08 16:00:21;;;;;;;3.00;0.90;;;;;;;21.56;47.77;99937.62;444950;1278;141331;-62
2022/07/08 16:10:26;;;;;;;1.20;0.70;;;;;;;21.26;48.31;99945.73;444103;1280;142434;-61
2022/07/08 16:20:32;;;;;;;2.40;1.40;;;;;;;21.05;48.28;99949.48;444214;1277;188366;-60
2022/07/08 16:30:38;;;;;;;2.30;2.10;;;;;;;20.93;48.69;99950.38;444644;1277;142166;-61
2022/07/08 16:40:44;;;;;;;8.90;3.60;;;;;;;20.96;48.54;99965.00;445003;1279;141735;-61
2022/07/08 16:50:50;;;;;;;5.10;3.30;;;;;;;20.72;48.46;99965.47;444359;1278;141709;-60
2022/07/08 17:00:55;;;;;;;1.70;0.90;;;;;;;20.60;48.45;99974.09;445157;1278;141855;-61
2022/07/08 17:11:01;;;;;;;4.60;2.10;;;;;;;20.00;49.23;99986.18;445281;1277;142106;-61
2022/07/08 17:21:08;;;;;;;2.10;1.00;;;;;;;19.68;50.49;99996.30;445464;1277;142414;-60
2022/07/08 17:31:14;;;;;;;1.20;0.50;;;;;;;19.46;50.89;100001.77;445337;1277;142219;-62
2022/07/08 17:41:20;;;;;;;4.90;0.60;;;;;;;19.29;51.46;99995.59;433175;1277;141386;-60
2022/07/08 17:51:26;;;;;;;2.50;1.20;;;;;;;19.01;52.09;100004.55;428135;1277;142250;-59
2022/07/08 18:01:32;;;;;;;1.20;0.60;;;;;;;18.81;53.15;100026.17;427416;1277;145440;-61
2022/07/08 18:11:39;;;;;;;0.30;0.30;;;;;;;18.26;53.70;100031.13;437686;1277;142091;-61
2022/07/08 18:21:44;;;;;;;2.80;0.60;;;;;;;17.84;54.74;100034.60;444895;1278;142833;-61
2022/07/08 18:31:51;;;;;;;0.90;0.40;;;;;;;17.60;54.98;100048.16;445321;1277;143200;-61
2022/07/08 18:41:58;;;;;;;0.80;0.70;;;;;;;17.31;55.39;100049.56;444265;1277;142938;-59
2022/07/08 18:52:05;;;;;;;1.50;0.60;;;;;;;17.10;55.57;100054.48;436399;1277;142490;-60
2022/07/08 19:02:10;;;;;;;1.10;0.70;;;;;;;16.91;56.39;100063.33;444295;1277;142432;-61
2022/07/08 19:12:16;;;;;;;6.30;0.90;;;;;;;16.86;56.99;100068.64;444913;1277;141610;-61
2022/07/08 19:22:22;;;;;;;3.00;1.40;;;;;;;16.91;57.54;100078.89;445181;1277;142562;-61
2022/07/08 19:32:28;;;;;;;3.40;1.20;;;;;;;16.75;58.70;100082.49;444444;1277;143806;-60
2022/07/08 19:42:34;;;;;;;3.80;1.70;;;;;;;16.47;59.94;100087.22;445368;1277;142944;-60
2022/07/08 19:52:40;;;;;;;4.10;1.90;;;;;;;16.23;60.90;100095.81;445229;1275;143458;-61
2022/07/08 20:02:46;;;;;;;4.00;2.30;;;;;;;16.03;61.93;100106.77;444445;1277;142713;-60
2022/07/08 20:12:53;;;;;;;2.30;1.70;;;;;;;15.91;62.73;100109.05;445235;1277;143648;-60
2022/07/08 20:22:59;;;;;;;4.90;1.90;;;;;;;15.89;63.15;100114.33;444678;1279;146724;-61
2022/07/08 20:33:05;;;;;;;5.40;2.30;;;;;;;15.89;63.28;100119.48;445215;1279;142321;-60
2022/07/08 20:43:11;;;;;;;2.40;1.80;;;;;;;15.76;63.62;100124.20;445208;1279;142829;-61
2022/07/08 20:53:17;;;;;;;3.50;2.50;;;;;;;15.60;63.93;100123.06;444543;1278;142392;-62
2022/07/08 21:03:23;;;;;;;6.10;2.90;;;;;;;15.51;64.46;100125.30;445244;1278;142406;-59
2022/07/08 21:13:29;;;;;;;2.20;2.00;;;;;;;15.36;64.95;100116.80;445111;1277;143365;-60
2022/07/08 21:23:34;;;;;;;4.00;2.20;;;;;;;15.22;65.56;100119.23;444743;1277;142228;-60
2022/07/08 21:33:40;;;;;;;6.20;2.90;;;;;;;15.24;65.83;100112.87;445428;1277;142662;-60
2022/07/08 21:43:46;;;;;;;5.20;2.70;;;;;;;15.32;66.09;100110.00;445624;1277;142830;-60
2022/07/08 21:53:52;;;;;;;6.20;2.20;;;;;;;15.39;66.16;100104.90;444732;1278;143224;-61
2022/07/08 22:03:58;;;;;;;3.40;1.70;;;;;;;15.46;66.13;100105.98;445363;1277;287888;-60
2022/07/08 22:14:04;;;;;;;3.00;1.60;;;;;;;15.53;66.20;100103.48;444761;1279;143424;-61
2022/07/08 22:24:09;;;;;;;4.70;2.30;;;;;;;15.58;66.12;100096.08;444929;1279;142592;-60
2022/07/08 22:34:15;;;;;;;3.90;2.10;;;;;;;15.59;66.31;100094.77;444758;1279;142348;-61
2022/07/08 22:44:21;;;;;;;1.60;1.50;;;;;;;15.55;66.70;100096.27;444916;1277;142634;-60
2022/07/08 22:54:26;;;;;;;5.00;2.60;;;;;;;15.50;66.80;100089.93;445560;1277;142325;-61
2022/07/08 23:04:32;;;;;;;3.30;1.80;;;;;;;15.50;66.93;100090.14;445588;1277;199167;-61
2022/07/08 23:14:38;;;;;;;5.00;2.10;;;;;;;15.46;67.15;100091.31;444730;1278;143318;-60
2022/07/08 23:24:45;;;;;;;3.60;2.70;;;;;;;15.28;67.36;100086.48;445470;1278;142594;-60
2022/07/08 23:34:51;;;;;;;5.10;1.70;;;;;;;14.95;67.79;100086.81;445490;1278;144297;-60
2022/07/08 23:44:56;;;;;;;4.50;1.90;;;;;;;14.70;68.27;100085.45;444774;1278;143332;-60
2022/07/08 23:55:02;;;;;;;2.10;1.90;;;;;;;14.50;68.89;100090.05;445514;1278;142628;-60
